CheckWX is a tool to help pilots better visualize weather data.  It is not intended as a substitute for an official pre-flight weather briefing.

05:19:04 UTC

EGPO METAR
Stornoway Airport
Stornoway, United Kingdom
Current

29 mins ago

EGPO 200450Z AUTO 20025KT 9999 -RA FEW008/// BKN012/// BKN021/// 10/09 Q0997
Observed
Feb-20 @ 04:50 UTC
Wind
  • 200° at 25 KTS
Visibility
10,000+ meters
Flight Rules
MVFR
Conditions
Light Rain
Cloud Levels
  • Few at 800' AGL
  • Broken at 1,200' AGL
  • Broken at 2,100' AGL
Temperature
10°C / 50°F
Dewpoint
C / 48°F
Humidity
94%
Altimeter
29.44" Hg
Pressure
996.92 hPa
Previous

59 mins ago

EGPO 200420Z AUTO 20025KT 9999 -RA SCT008/// BKN014/// BKN022/// 10/09 Q0997
Observed
Feb-20 @ 04:20 UTC
Wind
  • 200° at 25 KTS
Visibility
10,000+ meters
Flight Rules
MVFR
Conditions
Light Rain
Cloud Levels
  • Scattered at 800' AGL
  • Broken at 1,400' AGL
  • Broken at 2,200' AGL
Temperature
10°C / 50°F
Dewpoint
C / 48°F
Humidity
94%
Altimeter
29.44" Hg
Pressure
996.92 hPa
Previous

1 hour ago

EGPO 200350Z AUTO 20025KT 9999 -RA BKN007/// OVC012/// 10/09 Q0997
Observed
Feb-20 @ 03:50 UTC
Wind
  • 200° at 25 KTS
Visibility
10,000+ meters
Flight Rules
IFR
Conditions
Light Rain
Cloud Levels
  • Broken at 700' AGL
  • Overcast at 1,200' AGL
Temperature
10°C / 50°F
Dewpoint
C / 48°F
Humidity
94%
Altimeter
29.44" Hg
Pressure
996.92 hPa